createdAt,value
2017-07-16T00:00:23.673Z,5.50
2017-07-16T00:02:51.264Z,5.10
2017-07-16T00:05:18.856Z,5.20
2017-07-16T00:07:46.527Z,5.60
2017-07-16T00:10:14.097Z,4.87
2017-07-16T00:12:41.680Z,5.07
2017-07-16T00:15:09.246Z,5.13
2017-07-16T00:17:36.820Z,5.23
2017-07-16T00:20:05.197Z,5.53
2017-07-16T00:22:33.544Z,5.30
2017-07-16T00:25:01.102Z,5.67
2017-07-16T00:27:28.694Z,5.63
2017-07-16T00:29:56.275Z,5.50
2017-07-16T00:32:23.879Z,5.30
2017-07-16T00:34:51.443Z,5.30
2017-07-16T00:37:19.005Z,5.07
2017-07-16T00:39:46.583Z,5.30
2017-07-16T00:42:14.137Z,5.60
2017-07-16T00:44:41.726Z,4.97
2017-07-16T00:47:10.055Z,5.67
2017-07-16T00:49:37.610Z,5.37
2017-07-16T00:52:05.247Z,5.80
2017-07-16T00:54:32.818Z,6.20
2017-07-16T00:57:00.418Z,5.10
2017-07-16T00:59:27.983Z,5.33
2017-07-16T01:01:55.567Z,5.70
2017-07-16T01:04:23.142Z,5.50
2017-07-16T01:06:50.713Z,5.70
2017-07-16T01:09:18.294Z,5.77
2017-07-16T01:11:45.885Z,5.43
2017-07-16T01:14:13.798Z,5.07
2017-07-16T01:16:41.376Z,5.47
2017-07-16T01:19:08.962Z,5.93
2017-07-16T01:21:36.508Z,5.80
2017-07-16T01:24:04.070Z,5.20
2017-07-16T01:26:31.661Z,5.80
2017-07-16T01:28:59.235Z,6.00
2017-07-16T01:31:26.807Z,5.50
2017-07-16T01:33:55.149Z,5.90
2017-07-16T01:36:22.712Z,5.30
2017-07-16T01:38:50.309Z,5.33
2017-07-16T01:41:17.871Z,5.40
2017-07-16T01:43:47.443Z,5.53
2017-07-16T01:46:15.042Z,5.57
2017-07-16T01:48:43.390Z,5.80
2017-07-16T01:51:10.982Z,5.00
2017-07-16T01:53:39.331Z,6.10
2017-07-16T01:56:06.931Z,5.97
2017-07-16T01:58:35.267Z,5.67
2017-07-16T02:01:02.855Z,5.27
2017-07-16T02:03:30.418Z,5.13
2017-07-16T02:05:58.836Z,5.13
2017-07-16T02:08:26.411Z,4.70
2017-07-16T02:10:53.991Z,5.27
2017-07-16T02:13:21.575Z,5.23
2017-07-16T02:15:49.152Z,6.50
2017-07-16T02:18:16.750Z,5.83
2017-07-16T02:20:44.611Z,5.30
2017-07-16T02:23:12.169Z,5.53
2017-07-16T02:25:39.822Z,5.37
2017-07-16T02:28:07.388Z,5.50
2017-07-16T02:30:35.002Z,5.63
2017-07-16T02:33:02.572Z,5.40
2017-07-16T02:35:30.142Z,6.03
2017-07-16T02:37:59.159Z,5.00
2017-07-16T02:40:26.723Z,5.30
2017-07-16T02:42:54.283Z,5.30
2017-07-16T02:45:21.874Z,5.40
2017-07-16T02:47:49.462Z,4.90
2017-07-16T02:50:17.010Z,5.03
2017-07-16T02:52:44.586Z,5.20
2017-07-16T02:55:12.161Z,5.60
2017-07-16T02:57:39.736Z,5.53
2017-07-16T03:00:07.364Z,5.43
2017-07-16T03:02:34.974Z,5.80
2017-07-16T03:05:02.535Z,5.33
2017-07-16T03:07:30.128Z,5.00
2017-07-16T03:09:57.710Z,5.40
2017-07-16T03:12:25.275Z,6.00
2017-07-16T03:14:52.863Z,6.10
2017-07-16T03:17:20.434Z,5.80
2017-07-16T03:19:47.994Z,5.90
2017-07-16T03:22:15.575Z,6.13
2017-07-16T03:24:43.244Z,6.10
2017-07-16T03:27:10.830Z,6.43
2017-07-16T03:29:39.115Z,5.50
2017-07-16T03:32:06.723Z,5.97
2017-07-16T03:34:34.367Z,5.80
2017-07-16T03:37:02.687Z,5.67
2017-07-16T03:39:30.275Z,6.10
2017-07-16T03:41:57.860Z,6.40
2017-07-16T03:44:26.219Z,5.70
2017-07-16T03:46:53.786Z,6.20
2017-07-16T03:49:21.353Z,7.07
2017-07-16T03:51:49.040Z,6.03
2017-07-16T03:54:16.599Z,6.47
2017-07-16T03:56:44.172Z,6.10
2017-07-16T03:59:11.757Z,6.27
2017-07-16T04:01:39.323Z,5.93
2017-07-16T04:04:06.909Z,5.93
2017-07-16T04:06:34.505Z,5.77
2017-07-16T04:09:02.063Z,5.50
2017-07-16T04:11:29.619Z,6.47
2017-07-16T04:13:57.972Z,5.60
2017-07-16T04:16:25.535Z,5.57
2017-07-16T04:18:53.109Z,6.20
2017-07-16T04:21:21.483Z,5.43
2017-07-16T04:23:49.026Z,5.53
2017-07-16T04:26:16.603Z,6.17
2017-07-16T04:28:44.199Z,5.57
2017-07-16T04:31:11.772Z,6.10
2017-07-16T04:33:39.339Z,5.90
2017-07-16T04:36:06.907Z,6.00
2017-07-16T04:38:34.497Z,6.40
2017-07-16T04:41:02.059Z,6.20
2017-07-16T04:43:29.620Z,5.90
2017-07-16T04:45:57.198Z,6.10
2017-07-16T04:48:25.542Z,6.13
2017-07-16T04:50:53.142Z,6.33
2017-07-16T04:53:21.502Z,6.47
2017-07-16T04:55:49.085Z,6.20
2017-07-16T04:58:17.403Z,5.87
2017-07-16T05:00:44.988Z,6.20
2017-07-16T05:03:12.639Z,5.70
2017-07-16T05:05:40.251Z,6.23
2017-07-16T05:08:08.596Z,6.10
2017-07-16T05:10:36.141Z,5.67
2017-07-16T05:13:03.721Z,7.00
2017-07-16T05:15:31.305Z,6.50
2017-07-16T05:17:58.918Z,6.50
2017-07-16T05:20:26.481Z,6.43
2017-07-16T05:22:54.062Z,6.30
2017-07-16T05:25:21.624Z,6.30
2017-07-16T05:27:49.233Z,6.00
2017-07-16T05:30:16.788Z,5.60
2017-07-16T05:32:44.372Z,6.07
2017-07-16T05:35:11.950Z,6.10
2017-07-16T05:37:39.531Z,5.37
2017-07-16T05:40:07.117Z,5.80
2017-07-16T05:42:35.454Z,5.03
2017-07-16T05:45:03.020Z,5.30
2017-07-16T05:47:30.608Z,5.27
2017-07-16T05:49:58.164Z,5.97
2017-07-16T05:52:25.755Z,5.70
2017-07-16T05:54:53.310Z,5.90
2017-07-16T05:57:20.917Z,6.07
2017-07-16T05:59:48.505Z,6.30
2017-07-16T06:02:16.074Z,5.90
2017-07-16T06:04:43.659Z,5.13
2017-07-16T06:07:11.226Z,6.60
2017-07-16T06:09:38.799Z,6.00
2017-07-16T06:12:06.408Z,5.70
2017-07-16T06:14:33.970Z,6.20
2017-07-16T06:17:01.531Z,5.70
2017-07-16T06:19:29.123Z,6.10
2017-07-16T06:21:56.707Z,5.97
2017-07-16T06:24:24.265Z,5.53
2017-07-16T06:26:51.846Z,5.93
2017-07-16T06:29:19.402Z,6.80
2017-07-16T06:31:46.963Z,6.60
2017-07-16T06:34:14.545Z,9.03
2017-07-16T06:36:42.101Z,8.40
2017-07-16T06:39:09.659Z,9.07
2017-07-16T06:41:37.250Z,9.43
2017-07-16T06:44:05.766Z,9.13
2017-07-16T06:46:33.423Z,9.40
2017-07-16T06:49:01.023Z,9.33
2017-07-16T06:51:28.615Z,9.90
2017-07-16T06:53:56.197Z,9.60
2017-07-16T06:56:23.891Z,9.87
2017-07-16T06:58:51.530Z,9.27
2017-07-16T07:01:19.095Z,9.77
2017-07-16T07:03:46.694Z,9.73
2017-07-16T07:06:14.281Z,9.60
2017-07-16T07:08:41.859Z,10.03
2017-07-16T07:11:09.487Z,10.83
2017-07-16T07:13:37.070Z,9.03
2017-07-16T07:16:05.124Z,10.47
2017-07-16T07:18:32.750Z,9.50
2017-07-16T07:21:00.493Z,9.37
2017-07-16T07:23:28.195Z,9.70
2017-07-16T07:25:55.768Z,9.47
2017-07-16T07:28:23.326Z,9.40
2017-07-16T07:30:50.984Z,9.40
2017-07-16T07:33:18.583Z,9.60
2017-07-16T07:35:46.978Z,8.60
2017-07-16T07:38:14.879Z,8.90
2017-07-16T07:40:42.478Z,9.43
2017-07-16T07:43:10.064Z,9.00
2017-07-16T07:45:38.427Z,8.93
2017-07-16T07:48:05.999Z,9.60
2017-07-16T07:50:33.591Z,9.00
2017-07-16T07:53:01.245Z,8.10
2017-07-16T07:55:28.822Z,8.67
2017-07-16T07:57:57.367Z,8.60
2017-07-16T08:00:24.990Z,8.87
2017-07-16T08:02:52.578Z,8.70
2017-07-16T08:05:20.152Z,8.73
2017-07-16T08:07:48.528Z,8.57
2017-07-16T08:10:16.161Z,8.17
2017-07-16T08:12:43.741Z,9.10
2017-07-16T08:15:11.320Z,8.10
2017-07-16T08:17:38.913Z,8.40
2017-07-16T08:20:06.533Z,8.10
2017-07-16T08:22:34.109Z,7.60
2017-07-16T08:25:01.659Z,8.33
2017-07-16T08:27:30.003Z,7.93
2017-07-16T08:29:57.600Z,8.07
2017-07-16T08:32:25.942Z,8.40
2017-07-16T08:34:53.518Z,8.23
2017-07-16T08:37:21.159Z,7.70
2017-07-16T08:39:48.718Z,7.37
2017-07-16T08:42:16.302Z,7.80
2017-07-16T08:44:43.887Z,8.10
2017-07-16T08:47:11.457Z,8.63
2017-07-16T08:49:39.047Z,7.90
2017-07-16T08:52:06.630Z,7.10
2017-07-16T08:54:34.198Z,7.10
2017-07-16T08:57:01.794Z,6.77
2017-07-16T08:59:30.131Z,7.10
2017-07-16T09:01:58.559Z,7.10
2017-07-16T09:04:26.137Z,7.40
2017-07-16T09:06:53.728Z,7.27
2017-07-16T09:09:21.334Z,6.87
2017-07-16T09:11:48.909Z,6.77
2017-07-16T09:14:16.478Z,6.87
2017-07-16T09:16:44.578Z,6.53
2017-07-16T09:19:12.219Z,6.60
2017-07-16T09:21:39.806Z,7.13
2017-07-16T09:24:07.387Z,7.13
2017-07-16T09:26:34.974Z,7.57
2017-07-16T09:29:02.547Z,7.33
2017-07-16T09:31:30.142Z,7.27
2017-07-16T09:33:57.771Z,7.87
2017-07-16T09:36:25.352Z,7.40
2017-07-16T09:38:52.948Z,7.27
2017-07-16T09:41:20.519Z,8.90
2017-07-16T09:43:48.141Z,7.87
2017-07-16T09:46:15.701Z,7.90
2017-07-16T09:48:43.287Z,8.20
2017-07-16T09:51:11.015Z,8.47
2017-07-16T09:53:38.593Z,8.10
2017-07-16T09:56:06.194Z,8.17
2017-07-16T09:58:33.787Z,9.37
2017-07-16T10:01:01.365Z,8.53
2017-07-16T10:03:29.388Z,9.17
2017-07-16T10:05:56.961Z,9.57
2017-07-16T10:08:24.585Z,9.20
2017-07-16T10:10:52.180Z,9.00
2017-07-16T10:13:19.746Z,8.20
2017-07-16T10:15:47.331Z,8.97
2017-07-16T10:18:14.916Z,7.83
2017-07-16T10:20:42.479Z,9.20
2017-07-16T10:23:10.054Z,9.00
2017-07-16T10:25:37.664Z,8.80
2017-07-16T10:28:05.231Z,8.40
2017-07-16T10:30:32.823Z,9.60
2017-07-16T10:33:00.423Z,9.20
2017-07-16T10:35:27.995Z,10.37
2017-07-16T10:37:55.559Z,9.47
2017-07-16T10:40:23.143Z,9.33
2017-07-16T10:42:50.696Z,9.80
2017-07-16T10:45:18.303Z,10.00
2017-07-16T10:47:45.879Z,10.47
2017-07-16T10:50:13.454Z,9.33
2017-07-16T10:52:41.030Z,9.80
2017-07-16T10:55:09.387Z,9.47
2017-07-16T10:57:37.429Z,12.00
2017-07-16T11:00:05.028Z,11.50
2017-07-16T11:02:32.633Z,10.70
2017-07-16T11:05:00.297Z,10.53
2017-07-16T11:07:27.950Z,11.13
2017-07-16T11:09:55.535Z,10.43
2017-07-16T11:12:23.150Z,10.30
2017-07-16T11:14:50.746Z,10.33
2017-07-16T11:17:18.302Z,11.40
2017-07-16T11:19:45.857Z,11.57
2017-07-16T11:22:13.470Z,13.03
2017-07-16T11:24:41.026Z,11.20
2017-07-16T11:27:08.647Z,11.57
2017-07-16T11:29:36.236Z,11.80
2017-07-16T11:32:03.832Z,12.43
2017-07-16T11:34:31.475Z,11.97
2017-07-16T11:36:59.074Z,11.70
2017-07-16T11:39:26.654Z,11.90
2017-07-16T11:41:55.079Z,11.93
2017-07-16T11:44:22.676Z,11.20
2017-07-16T11:46:51.121Z,11.10
2017-07-16T11:49:18.722Z,11.40
2017-07-16T11:51:47.059Z,11.33
2017-07-16T11:54:14.658Z,11.07
2017-07-16T11:56:43.024Z,10.17
2017-07-16T11:59:11.374Z,11.00
2017-07-16T12:01:38.979Z,11.10
2017-07-16T12:04:07.311Z,11.00
2017-07-16T12:06:34.885Z,10.50
2017-07-16T12:09:02.482Z,12.07
2017-07-16T12:11:30.798Z,10.47
2017-07-16T12:13:58.391Z,10.53
2017-07-16T12:16:25.976Z,11.37
2017-07-16T12:18:54.296Z,12.20
2017-07-16T12:21:21.882Z,12.10
2017-07-16T12:23:49.490Z,11.47
2017-07-16T12:26:17.106Z,12.47
2017-07-16T12:28:44.707Z,10.23
2017-07-16T12:31:13.056Z,13.37
2017-07-16T12:33:40.648Z,12.00
2017-07-16T12:36:08.229Z,12.20
2017-07-16T12:38:35.835Z,13.00
2017-07-16T12:41:03.408Z,13.57
2017-07-16T12:43:31.026Z,13.17
2017-07-16T12:45:58.626Z,13.10
2017-07-16T12:48:26.202Z,13.90
2017-07-16T12:50:53.834Z,14.10
2017-07-16T12:53:21.411Z,14.40
2017-07-16T12:55:48.974Z,14.70
2017-07-16T12:58:16.595Z,14.10
2017-07-16T13:00:44.250Z,14.83
2017-07-16T13:03:11.829Z,15.50
2017-07-16T13:05:39.444Z,15.63
2017-07-16T13:08:07.809Z,16.20
2017-07-16T13:10:36.128Z,15.80
2017-07-16T13:13:03.727Z,14.70
2017-07-16T13:15:31.335Z,15.73
2017-07-16T13:17:58.915Z,15.10
2017-07-16T13:20:26.493Z,15.30
2017-07-16T13:22:54.074Z,14.87
2017-07-16T13:25:21.656Z,14.87
2017-07-16T13:27:49.258Z,15.70
2017-07-16T13:30:16.950Z,14.60
2017-07-16T13:32:44.568Z,14.60
2017-07-16T13:35:12.145Z,15.80
2017-07-16T13:37:39.719Z,15.47
2017-07-16T13:40:07.309Z,14.73
2017-07-16T13:42:34.878Z,15.00
2017-07-16T13:45:02.515Z,15.80
2017-07-16T13:47:30.079Z,14.93
2017-07-16T13:49:57.691Z,14.83
2017-07-16T13:52:25.410Z,16.27
2017-07-16T13:54:52.997Z,14.30
2017-07-16T13:57:21.342Z,15.83
2017-07-16T13:59:49.014Z,15.63
2017-07-16T14:02:16.590Z,14.80
2017-07-16T14:04:44.170Z,14.87
2017-07-16T14:07:12.495Z,16.37
2017-07-16T14:09:40.236Z,15.70
2017-07-16T14:12:07.802Z,15.07
2017-07-16T14:14:35.395Z,14.07
2017-07-16T14:17:02.978Z,14.20
2017-07-16T14:19:30.570Z,15.27
2017-07-16T14:21:58.162Z,15.43
2017-07-16T14:24:25.733Z,16.00
2017-07-16T14:26:53.336Z,14.00
2017-07-16T14:29:20.936Z,13.97
2017-07-16T14:31:48.514Z,13.70
2017-07-16T14:34:16.106Z,17.33
2017-07-16T14:36:43.687Z,14.73
2017-07-16T14:39:12.062Z,14.80
2017-07-16T14:41:40.395Z,13.70
2017-07-16T14:44:08.003Z,14.30
2017-07-16T14:46:39.159Z,13.80
2017-07-16T14:49:06.752Z,12.87
2017-07-16T14:51:34.363Z,13.53
2017-07-16T14:54:01.937Z,13.50
2017-07-16T14:56:29.541Z,13.83
2017-07-16T14:58:57.156Z,12.87
2017-07-16T15:01:24.723Z,13.00
2017-07-16T15:03:53.099Z,13.40
2017-07-16T15:06:20.663Z,13.40
2017-07-16T15:08:49.159Z,14.37
2017-07-16T15:11:17.436Z,14.70
2017-07-16T15:13:45.046Z,14.10
2017-07-16T15:16:12.689Z,14.70
2017-07-16T15:18:40.265Z,15.57
2017-07-16T15:21:07.862Z,14.37
2017-07-16T15:23:35.438Z,14.03
2017-07-16T15:26:03.014Z,13.43
2017-07-16T15:28:30.614Z,13.30
2017-07-16T15:30:58.216Z,12.27
2017-07-16T15:33:25.812Z,12.57
2017-07-16T15:35:53.409Z,11.97
2017-07-16T15:38:20.982Z,12.53
2017-07-16T15:40:48.566Z,10.83
2017-07-16T15:43:16.199Z,11.10
2017-07-16T15:45:43.795Z,11.30
2017-07-16T15:48:11.414Z,10.97
2017-07-16T15:50:38.995Z,11.00
2017-07-16T15:53:07.362Z,11.37
2017-07-16T15:55:35.031Z,10.90
2017-07-16T15:58:02.602Z,11.47
2017-07-16T16:00:30.211Z,12.13
2017-07-16T16:02:57.800Z,12.10
2017-07-16T16:05:25.406Z,11.00
2017-07-16T16:07:53.012Z,10.77
2017-07-16T16:10:20.597Z,11.20
2017-07-16T16:12:48.183Z,11.60
2017-07-16T16:15:15.795Z,11.50
2017-07-16T16:17:43.418Z,11.40
2017-07-16T16:20:10.995Z,11.60
2017-07-16T16:22:39.394Z,12.47
2017-07-16T16:25:06.996Z,12.10
2017-07-16T16:27:34.591Z,11.53
2017-07-16T16:30:02.193Z,11.37
2017-07-16T16:32:29.778Z,11.80
2017-07-16T16:34:57.361Z,12.60
2017-07-16T16:37:24.955Z,12.20
2017-07-16T16:39:52.522Z,12.83
2017-07-16T16:42:20.144Z,12.00
2017-07-16T16:44:47.763Z,12.27
2017-07-16T16:47:15.403Z,12.10
2017-07-16T16:49:42.960Z,11.60
2017-07-16T16:52:10.527Z,12.70
2017-07-16T16:54:38.134Z,11.53
2017-07-16T16:57:06.538Z,12.70
2017-07-16T16:59:34.746Z,12.60
2017-07-16T17:02:02.310Z,11.67
2017-07-16T17:04:29.917Z,11.13
2017-07-16T17:06:58.267Z,12.90
2017-07-16T17:09:25.885Z,12.40
2017-07-16T17:11:53.511Z,12.20
2017-07-16T17:14:21.116Z,13.23
2017-07-16T17:16:48.750Z,13.10
2017-07-16T17:19:16.355Z,12.17
2017-07-16T17:21:43.935Z,12.03
2017-07-16T17:24:11.526Z,12.23
2017-07-16T17:26:39.908Z,12.77
2017-07-16T17:29:08.252Z,13.27
2017-07-16T17:31:35.840Z,13.13
2017-07-16T17:34:03.446Z,12.60
2017-07-16T17:36:31.010Z,11.97
2017-07-16T17:38:58.629Z,13.10
2017-07-16T17:41:27.095Z,11.97
2017-07-16T17:43:54.695Z,13.57
2017-07-16T17:46:22.290Z,12.67
2017-07-16T17:48:49.862Z,12.10
2017-07-16T17:51:17.422Z,12.00
2017-07-16T17:53:45.085Z,12.00
2017-07-16T17:56:12.683Z,12.33
2017-07-16T17:58:40.302Z,12.00
2017-07-16T18:01:07.903Z,10.83
2017-07-16T18:03:35.672Z,11.90
2017-07-16T18:06:04.005Z,12.07
2017-07-16T18:08:31.576Z,12.30
2017-07-16T18:10:59.264Z,13.57
2017-07-16T18:13:27.604Z,12.57
2017-07-16T18:15:55.207Z,12.07
2017-07-16T18:18:22.779Z,13.90
2017-07-16T18:20:50.394Z,16.20
2017-07-16T18:23:17.990Z,16.17
2017-07-16T18:25:45.625Z,22.47
2017-07-16T18:28:13.224Z,18.03
2017-07-16T18:30:41.569Z,18.83
2017-07-16T18:33:09.153Z,16.30
2017-07-16T18:35:36.855Z,20.03
2017-07-16T18:38:04.443Z,15.23
2017-07-16T18:40:32.975Z,12.83
2017-07-16T18:43:01.322Z,18.43
2017-07-16T18:45:28.935Z,18.70
2017-07-16T18:47:56.709Z,19.53
2017-07-16T18:50:24.283Z,19.37
2017-07-16T18:52:51.862Z,20.13
2017-07-16T18:55:19.467Z,20.80
2017-07-16T18:57:47.830Z,19.63
2017-07-16T19:00:15.505Z,17.37
2017-07-16T19:02:43.860Z,19.10
2017-07-16T19:05:11.470Z,18.87
2017-07-16T19:07:39.137Z,18.30
2017-07-16T19:10:06.762Z,20.67
2017-07-16T19:12:34.335Z,19.20
2017-07-16T19:15:02.707Z,18.60
2017-07-16T19:17:30.317Z,20.13
2017-07-16T19:19:57.911Z,18.00
2017-07-16T19:22:25.530Z,19.20
2017-07-16T19:24:53.096Z,18.40
2017-07-16T19:27:20.697Z,18.90
2017-07-16T19:29:48.279Z,19.10
2017-07-16T19:32:16.730Z,18.37
2017-07-16T19:34:44.300Z,18.87
2017-07-16T19:37:11.864Z,18.27
2017-07-16T19:39:40.248Z,18.57
2017-07-16T19:42:08.711Z,18.90
2017-07-16T19:44:36.317Z,18.10
2017-07-16T19:47:03.993Z,18.53
2017-07-16T19:49:31.629Z,18.23
2017-07-16T19:51:59.206Z,16.10
2017-07-16T19:54:26.829Z,15.13
2017-07-16T19:56:54.452Z,15.37
2017-07-16T19:59:22.075Z,14.30
2017-07-16T20:01:50.427Z,15.47
2017-07-16T20:04:18.012Z,13.33
2017-07-16T20:06:45.594Z,14.80
2017-07-16T20:09:13.188Z,15.10
2017-07-16T20:11:40.836Z,14.27
2017-07-16T20:14:08.437Z,13.70
2017-07-16T20:16:36.017Z,13.90
2017-07-16T20:19:03.659Z,12.60
2017-07-16T20:21:31.215Z,13.07
2017-07-16T20:23:58.799Z,13.60
2017-07-16T20:26:26.339Z,14.03
2017-07-16T20:28:53.915Z,13.83
2017-07-16T20:31:21.492Z,13.27
2017-07-16T20:33:49.125Z,13.10
2017-07-16T20:36:16.724Z,14.50
2017-07-16T20:38:44.329Z,13.60
2017-07-16T20:41:11.966Z,13.77
2017-07-16T20:43:39.582Z,13.87
2017-07-16T20:46:07.188Z,13.67
2017-07-16T20:48:34.803Z,13.70
2017-07-16T20:51:02.367Z,13.63
2017-07-16T20:53:30.721Z,14.73
2017-07-16T20:55:58.333Z,12.90
2017-07-16T20:58:26.020Z,13.47
2017-07-16T21:00:53.628Z,13.83
2017-07-16T21:03:21.277Z,14.43
2017-07-16T21:05:48.878Z,14.70
2017-07-16T21:08:16.470Z,15.30
2017-07-16T21:10:44.063Z,15.47
2017-07-16T21:13:11.628Z,14.83
2017-07-16T21:15:39.238Z,14.70
2017-07-16T21:18:06.857Z,12.63
2017-07-16T21:20:34.439Z,13.70
2017-07-16T21:23:02.110Z,13.17
2017-07-16T21:25:29.713Z,13.97
2017-07-16T21:27:57.470Z,13.93
2017-07-16T21:30:25.080Z,14.20
2017-07-16T21:32:52.686Z,14.43
2017-07-16T21:35:20.259Z,12.97
2017-07-16T21:37:47.841Z,14.33
2017-07-16T21:40:15.453Z,13.20
2017-07-16T21:42:43.022Z,14.03
2017-07-16T21:45:10.632Z,15.37
2017-07-16T21:47:38.242Z,14.30
2017-07-16T21:50:05.811Z,14.00
2017-07-16T21:52:33.538Z,14.23
2017-07-16T21:55:01.892Z,14.67
2017-07-16T21:57:29.467Z,14.20
2017-07-16T21:59:57.063Z,15.70
2017-07-16T22:02:24.633Z,14.20
2017-07-16T22:04:52.207Z,14.83
2017-07-16T22:07:19.793Z,14.40
2017-07-16T22:09:47.405Z,14.40
2017-07-16T22:12:14.983Z,14.80
2017-07-16T22:14:42.607Z,15.00
2017-07-16T22:17:11.084Z,14.40
2017-07-16T22:19:38.639Z,14.90
2017-07-16T22:22:06.230Z,16.20
2017-07-16T22:24:33.824Z,15.90
2017-07-16T22:27:01.366Z,15.60
2017-07-16T22:29:28.951Z,15.50
2017-07-16T22:31:56.591Z,14.37
2017-07-16T22:34:24.158Z,14.73
2017-07-16T22:36:51.745Z,15.80
2017-07-16T22:39:19.431Z,15.43
2017-07-16T22:41:46.996Z,16.10
2017-07-16T22:44:14.569Z,15.37
2017-07-16T22:46:42.151Z,15.20
2017-07-16T22:49:09.748Z,15.50
2017-07-16T22:51:37.323Z,16.20
2017-07-16T22:54:04.890Z,15.23
2017-07-16T22:56:32.505Z,15.73
2017-07-16T22:59:00.074Z,15.00
2017-07-16T23:01:27.655Z,17.47
2017-07-16T23:03:55.244Z,16.47
2017-07-16T23:06:22.802Z,16.27
2017-07-16T23:08:50.391Z,16.13
2017-07-16T23:11:17.959Z,15.50
2017-07-16T23:13:45.579Z,14.70
2017-07-16T23:16:13.159Z,15.00
2017-07-16T23:18:40.723Z,16.63
2017-07-16T23:21:08.306Z,14.50
2017-07-16T23:23:35.870Z,16.13
2017-07-16T23:26:03.463Z,14.30
2017-07-16T23:28:31.039Z,15.73
2017-07-16T23:30:58.626Z,13.90
2017-07-16T23:33:26.203Z,15.97
2017-07-16T23:35:53.784Z,16.07
2017-07-16T23:38:21.359Z,14.73
2017-07-16T23:40:48.951Z,16.33
2017-07-16T23:43:16.511Z,15.90
2017-07-16T23:45:44.103Z,15.43
2017-07-16T23:48:11.955Z,14.07
2017-07-16T23:50:40.287Z,15.00
2017-07-16T23:53:07.893Z,14.97
2017-07-16T23:55:35.544Z,15.37
2017-07-16T23:58:03.127Z,15.37
